Database: COMPET-N - COOP - 3PL - 4PL - CNDOOM

WAD: Doom | Doom 2 | TNT | Plutonia | AV | HR | Scythe | MM | MM2 | Requiem | CE
Category: speed | nmare | max | nm100s | tyson | pacifist | fast | respawn | nomo | misc | built | all
Highscore: ALL | IWAD | PWAD | Country | Continent

< Previous map       Next map >
Remove: wad | map | category | player | allMAP02
MapPlayerTimeDateFilenameCommentsDL
MAP02: UnderhallsAdam Williamson40.002001-12-16lv02-040.zip - 460
MAP02: UnderhallsHenning Skogsto41.002000-11-18lv02-041.zip - 269
MAP02: UnderhallsAdam Hegyi42.002000-08-24lv02-042.zip - 286
MAP02: UnderhallsAnders Johnsen44.001999-01-09lv02-044.zip - 253
MAP02: UnderhallsAnders Johnsen46.001998-05-23lv02-046.zip - 248
MAP02: UnderhallsDaniel Lindgren49.001996-08-28lv02-049.zip - 237
MAP02: UnderhallsDaniel Lindgren55.001996-08-24lv02-055.zip - 274
MAP02: UnderhallsDanny Lancashire56.001996-05-19lv02-056.zip - 253
MAP02: UnderhallsDaniel Lindgren57.001996-02-24lv02-057.zip - 256
MAP02: UnderhallsAndreas Kren1:00.001996-01-18lv02-100.zip - 214
MAP02: UnderhallsDaniel Lindgren1:03.001995-11-27lv02-103.zip - 271
MAP02: UnderhallsAndreas Kren1:04.001995-12-10lv02-104.zip - 205
MAP02: UnderhallsDaniel Lindgren1:05.001995-11-23lv02-105.zip - 259
MAP02: UnderhallsAndreas Kren1:11.001995-09-17lv02-111.zip - 197
MAP02: UnderhallsLawrence Kirby1:25.001995-07-05lv02-125.zip - 345
MAP02: UnderhallsHi Jango44.002005-10-27nm02-044.zip - 369
MAP02: UnderhallsJuho Ruohonen45.002002-12-06nm02-045.zip - 247
MAP02: UnderhallsHenning Skogsto46.002001-11-19nm02-046.zip - 252
MAP02: UnderhallsDrew DeVore48.002001-11-06nm02-048.zip - 263
MAP02: UnderhallsHenning Skogsto49.001999-10-02nm02-049.zip - 230
MAP02: UnderhallsThomas Pilger54.001999-01-05nm02-054.zip - 236
MAP02: UnderhallsAndy Kempling57.001998-09-05nm02-057.zip - 244
MAP02: UnderhallsAdam Hegyi58.001999-01-02nm02-058.zip - 286
MAP02: UnderhallsIstvan Pataki59.001998-12-31nm02-059.zip - 225
MAP02: UnderhallsThomas Pilger1:00.001998-07-16nm02-100.zip - 220
MAP02: UnderhallsIstvan Pataki1:03.001997-05-12nm02-103.zip - 222
MAP02: UnderhallsDaniel Lindgren1:23.001995-11-23lv02-123.zip - 247
MAP02: UnderhallsAndreas Kren1:27.001995-10-13lv02-nm1.zip - 209
MAP02: UnderhallsLooper 1:03.002014-04-17lv02-103.zip892
MAP02: UnderhallsRadek Pecka1:07.002004-01-15lv02-107.zip - 267
MAP02: UnderhallsAnders Johnsen1:08.002002-12-22lv02-108.zip - 282
MAP02: UnderhallsAnders Johnsen1:10.002001-11-26lv02-110.zip - 272
MAP02: UnderhallsRadek Pecka1:12.002001-06-26lv02-112.zip - 264
MAP02: UnderhallsRadek Pecka1:14.002000-08-06lv02-114.zip - 255
MAP02: UnderhallsAnders Johnsen1:17.001998-06-22lv02-117.zip - 243
MAP02: UnderhallsAnders Johnsen1:21.001998-06-20lv02-121.zip - 282
MAP02: UnderhallsDaniel Lindgren1:22.001996-07-26lv02-122.zip - 255
MAP02: UnderhallsDaniel Lindgren1:28.001996-04-02lv02-128.zip - 253
MAP02: UnderhallsKai-Uwe Humpert1:29.001996-03-30lv02-129.zip - 236
MAP02: UnderhallsMichael Kren1:33.001996-05-01lv02-133.zip - 162
MAP02: UnderhallsDaniel Lindgren1:36.001996-01-27lv02-136.zip - 228
MAP02: UnderhallsSven Huth1:41.001995-11-18lv02-141.zip - 335
MAP02: UnderhallsAndreas Kren1:45.001995-12-22lv02-145.zip - 219
MAP02: UnderhallsSimon Widlake2:40.001995-12-19lv02-240.zip - 232
MAP02: UnderhallsSteven Towle3:38.001995-12-08lv02-338.zip - 189
MAP02: UnderhallsHi Jango44.002005-10-27ns02-044.zip - 452
MAP02: UnderhallsJim Leonard2:57.002006-01-29ty02-257.zip - 458
MAP02: UnderhallsRadek Pecka3:19.002003-12-21ty02-319.zip - 230
MAP02: UnderhallsAnders Johnsen3:31.002000-02-09ty02-331.zip - 254
MAP02: UnderhallsAdam Williamson4:47.001999-07-09ty02-447.zip - 257
MAP02: UnderhallsAnders Johnsen4:59.001999-03-17ty02-459.zip - 243
MAP02: UnderhallsAndy Kempling5:32.001999-03-07ty02-532.zip - 221
MAP02: UnderhallsDaniel Lindgren6:10.001997-06-29ty02-610.zip - 247
MAP02: UnderhallsRadek Pecka1:08.002004-01-14fa02-108.zip - 396
MAP02: UnderhallsRadek Pecka1:10.002003-01-22fa02-110.zip - 248
MAP02: UnderhallsIan Sabourin1:11.002001-12-16fa02-111.zip - 244
MAP02: UnderhallsRadek Pecka1:21.002001-03-16fa02-121.zip - 271
MAP02: UnderhallsAnders Johnsen1:24.001998-09-29fa02-124.zip - 258
MAP02: UnderhallsDaniel Lindgren1:30.001996-07-04fa02-130.zip - 223
MAP02: UnderhallsThomas Zajic1:32.001996-06-08fa02-132.zip - 195
MAP02: UnderhallsPeo Sjoblom2:05.001996-05-31fa02-205.zip - 240
MAP02: UnderhallsPeo Sjoblom2:21.001996-05-21fa02-221.zip - 205
MAP02: UnderhallsPeo Sjoblom2:41.001996-05-16fa02-241.zip - 212
MAP02: UnderhallsAndy Olivera4:05.001996-03-14fa02-405.zip - 321
MAP02: UnderhallsLooper 1:07.002015-04-07re02-107.zip - 612
MAP02: UnderhallsRadek Pecka1:10.002003-01-01re02-110.zip - 306
MAP02: UnderhallsRadek Pecka1:14.002000-08-20re02-114.zip - 263
MAP02: UnderhallsArno Slagboom1:18.002000-07-22re02-118.zip - 222
MAP02: UnderhallsAnders Johnsen1:20.001998-09-17re02-120.zip - 266
MAP02: UnderhallsAdam Hegyi1:25.001998-04-26re02-125.zip - 256
MAP02: UnderhallsThomas Pilger1:47.001998-01-11re02-147.zip - 240
MAP02: UnderhallsSteffen Udluft1:53.001997-08-27re02-153.zip - 239
MAP02: UnderhallsThomas Zajic2:05.001996-10-27re02-205.zip - 204
MAP02: UnderhallsIan Sabourin24.972001-11-22d0202497.zip - 647
MAP02: UnderhallsMarijo Sedlić26.392000-05-22d0202639.zip - 270
MAP02: UnderhallsAdam Hegyi26.942000-05-08d0202694.zip - 311
MAP02: UnderhallsZvonimir Bužanić29.232012-11-07d0202923.zip - 267
MAP02: UnderhallsArno Slagboom31.661999-10-08d0203166.zip - 226
Remove: wad | map | category | player | all